Time;durP1;ratioP1;P1;durP2;ratioP2;P2;SDS_P1;SDS_P2;PMS_P1;PMS_P2;Temp;Humidity;BMP_temperature;BMP_pressure;BME280_temperature;BME280_humidity;BME280_pressure;Samples;Min_cycle;Max_cycle;Signal;HPM_P1;HPM_P2
2021/01/14 00:01:17;;;;;;;15.95;2.20;;;10.40;99.90;;;;;;5033630;28;20146;-88
2021/01/14 00:03:44;;;;;;;11.68;2.03;;;10.40;99.90;;;;;;5029812;28;20041;-88
2021/01/14 00:06:13;;;;;;;15.85;1.90;;;10.40;99.90;;;;;;5033936;28;20053;-87
2021/01/14 00:08:39;;;;;;;14.60;1.85;;;10.40;99.90;;;;;;5033939;28;20049;-88
2021/01/14 00:11:06;;;;;;;14.77;1.75;;;10.40;99.90;;;;;;5034196;28;20052;-87
2021/01/14 00:13:32;;;;;;;18.05;2.10;;;10.40;99.90;;;;;;5033523;28;20045;-87
2021/01/14 00:15:59;;;;;;;17.60;2.03;;;10.30;99.90;;;;;;5033385;28;20053;-88
2021/01/14 00:18:25;;;;;;;10.90;1.60;;;10.30;99.90;;;;;;5034009;28;20459;-87
2021/01/14 00:20:52;;;;;;;10.70;2.10;;;10.30;99.90;;;;;;5032208;28;20047;-88
2021/01/14 00:23:18;;;;;;;13.05;1.92;;;10.30;99.90;;;;;;5033516;28;20053;-87
2021/01/14 00:25:45;;;;;;;9.30;1.67;;;10.30;99.90;;;;;;5033741;28;20052;-88
2021/01/14 00:28:11;;;;;;;11.05;2.05;;;10.30;99.90;;;;;;5020035;28;20053;-87
2021/01/14 00:30:38;;;;;;;10.02;1.48;;;10.30;99.90;;;;;;5024719;28;20053;-88
2021/01/14 00:33:05;;;;;;;8.82;1.65;;;10.20;99.90;;;;;;5022443;28;20056;-88
2021/01/14 00:35:31;;;;;;;11.27;1.67;;;10.20;99.90;;;;;;5023740;28;20049;-88
2021/01/14 00:37:59;;;;;;;12.63;1.63;;;10.20;99.90;;;;;;5017813;28;20049;-88
2021/01/14 00:40:32;;;;;;;10.20;2.08;;;10.20;99.90;;;;;;5021691;28;20064;-87
2021/01/14 00:43:05;;;;;;;10.80;2.10;;;10.20;99.90;;;;;;5027099;28;20053;-87
2021/01/14 00:45:32;;;;;;;10.70;1.95;;;10.20;99.90;;;;;;5019768;28;20049;-88
2021/01/14 00:48:00;;;;;;;13.05;2.03;;;10.10;99.90;;;;;;5022702;28;20041;-87
2021/01/14 00:50:27;;;;;;;11.48;1.65;;;10.10;99.90;;;;;;5031918;28;20057;-87
2021/01/14 00:52:54;;;;;;;12.00;1.75;;;10.10;99.90;;;;;;5047425;28;20051;-88
2021/01/14 00:55:21;;;;;;;13.65;2.97;;;10.10;99.90;;;;;;5032558;28;20057;-87
2021/01/14 00:57:48;;;;;;;11.60;1.75;;;10.10;99.90;;;;;;5058915;28;20470;-88
2021/01/14 01:00:17;;;;;;;11.65;2.30;;;10.00;99.90;;;;;;5037039;28;21068;-87
2021/01/14 01:02:46;;;;;;;15.60;1.90;;;10.00;99.90;;;;;;5044942;28;20049;-88
2021/01/14 01:05:15;;;;;;;12.10;1.90;;;10.00;99.90;;;;;;5031635;28;20052;-88
2021/01/14 01:07:59;;;;;;;12.77;2.05;;;10.00;99.90;;;;;;5037676;28;20045;-87
2021/01/14 01:10:27;;;;;;;15.55;2.92;;;10.10;99.90;;;;;;5036506;28;20091;-87
2021/01/14 01:12:55;;;;;;;11.05;2.45;;;10.10;99.90;;;;;;5037807;28;20048;-88
2021/01/14 01:15:23;;;;;;;17.15;2.72;;;10.10;99.90;;;;;;5028463;28;20055;-88
2021/01/14 01:17:50;;;;;;;11.93;2.00;;;10.00;99.90;;;;;;5029764;28;20050;-88
2021/01/14 01:20:17;;;;;;;10.82;1.88;;;10.10;99.90;;;;;;5036191;28;20427;-88
2021/01/14 01:22:43;;;;;;;11.90;2.10;;;10.00;99.90;;;;;;5021408;28;20399;-88
2021/01/14 01:25:10;;;;;;;8.48;2.20;;;10.10;99.90;;;;;;5023822;28;20049;-87
2021/01/14 01:27:37;;;;;;;10.95;2.35;;;10.10;99.90;;;;;;5026516;28;20050;-88
2021/01/14 01:30:06;;;;;;;13.30;2.70;;;10.00;99.90;;;;;;5020131;28;20080;-88
2021/01/14 01:32:32;;;;;;;;;;;10.00;99.90;;;;;;5024925;28;20053;-88
2021/01/14 01:34:59;;;;;;;9.55;2.00;;;10.00;99.90;;;;;;5063845;28;19968;-88
2021/01/14 01:37:26;;;;;;;15.60;2.17;;;10.00;99.90;;;;;;5031702;28;20375;-88
2021/01/14 01:39:52;;;;;;;12.88;2.28;;;10.00;99.90;;;;;;5034648;28;20052;-88
2021/01/14 01:42:19;;;;;;;12.55;2.83;;;10.00;99.90;;;;;;5053022;28;20044;-88
2021/01/14 01:44:45;;;;;;;16.25;2.90;;;10.10;99.90;;;;;;5035987;28;20056;-88
2021/01/14 01:47:12;;;;;;;11.70;2.22;;;10.10;99.90;;;;;;5063213;28;20052;-88
2021/01/14 01:49:39;;;;;;;15.43;2.28;;;10.00;99.90;;;;;;5044896;28;20139;-88
2021/01/14 01:52:07;;;;;;;17.10;2.88;;;10.10;99.90;;;;;;5036989;28;20051;-88
2021/01/14 01:54:35;;;;;;;13.18;2.30;;;10.10;99.90;;;;;;5035086;28;20049;-88
2021/01/14 01:57:03;;;;;;;19.83;2.22;;;10.10;99.90;;;;;;5035149;28;20071;-87
2021/01/14 01:59:33;;;;;;;16.25;2.55;;;10.10;99.90;;;;;;5031202;28;20057;-88
2021/01/14 02:02:25;;;;;;;12.82;2.55;;;10.10;99.90;;;;;;5033701;28;20044;-87
2021/01/14 02:04:54;;;;;;;18.98;2.63;;;10.10;99.90;;;;;;5021468;28;20061;-88
2021/01/14 02:07:48;;;;;;;17.65;3.30;;;10.10;99.90;;;;;;5035977;28;20048;-88
2021/01/14 02:10:29;;;;;;;13.13;2.88;;;10.10;99.90;;;;;;5054713;28;20485;-88
2021/01/14 02:13:22;;;;;;;12.02;2.70;;;10.10;99.90;;;;;;5041370;28;20430;-88
2021/01/14 02:15:50;;;;;;;10.77;2.78;;;10.10;99.90;;;;;;5023290;28;20046;-88
2021/01/14 02:18:21;;;;;;;16.88;2.83;;;10.10;99.90;;;;;;5024453;28;20053;-88
2021/01/14 02:20:50;;;;;;;16.92;3.55;;;10.10;99.90;;;;;;5027636;28;20046;-87
2021/01/14 02:23:21;;;;;;;;;;;10.10;99.90;;;;;;5022282;28;20064;-87
2021/01/14 02:26:14;;;;;;;19.90;4.80;;;10.10;99.90;;;;;;5027969;28;19920;-87
2021/01/14 02:28:44;;;;;;;24.10;4.88;;;10.10;99.90;;;;;;5035607;28;20506;-87
2021/01/14 02:31:21;;;;;;;29.58;5.50;;;10.10;99.90;;;;;;5034126;28;20048;-89
2021/01/14 02:33:49;;;;;;;26.48;5.15;;;10.10;99.90;;;;;;5026761;28;20045;-88
2021/01/14 02:36:15;;;;;;;24.90;4.80;;;10.10;99.90;;;;;;5033897;28;20045;-88
2021/01/14 02:38:42;;;;;;;21.50;4.07;;;10.10;99.90;;;;;;5035140;28;20391;-88
2021/01/14 02:41:09;;;;;;;22.30;3.35;;;10.10;99.90;;;;;;5034921;28;20053;-87
2021/01/14 02:43:36;;;;;;;23.40;3.22;;;10.20;99.90;;;;;;5034814;28;20049;-87
2021/01/14 02:46:06;;;;;;;21.70;3.58;;;10.10;99.90;;;;;;5032525;28;20053;-88
2021/01/14 02:48:39;;;;;;;22.90;4.05;;;10.10;99.90;;;;;;5033918;28;20080;-88
2021/01/14 02:51:19;;;;;;;24.55;3.97;;;10.10;99.90;;;;;;5030518;28;20049;-88
2021/01/14 02:53:49;;;;;;;15.73;3.83;;;10.20;99.90;;;;;;5032982;28;20051;-88
2021/01/14 02:56:17;;;;;;;9.80;2.20;;;10.20;99.90;;;;;;5034225;28;20475;-88
2021/01/14 02:58:45;;;;;;;15.30;2.60;;;10.20;99.90;;;;;;5022249;28;20434;-88
2021/01/14 03:01:11;;;;;;;12.73;2.30;;;10.20;99.90;;;;;;5021482;28;20059;-88
2021/01/14 03:03:38;;;;;;;20.67;2.85;;;10.20;99.90;;;;;;5007902;28;20487;-88
2021/01/14 03:06:05;;;;;;;19.15;4.07;;;10.20;99.90;;;;;;5016098;28;20137;-88
2021/01/14 03:08:31;;;;;;;21.33;4.75;;;10.20;99.90;;;;;;5024551;28;20346;-88
2021/01/14 03:10:58;;;;;;;25.65;5.75;;;10.20;99.90;;;;;;5023413;28;20494;-88
2021/01/14 03:13:24;;;;;;;17.92;4.43;;;10.20;99.90;;;;;;5025478;28;20135;-88
2021/01/14 03:15:51;;;;;;;19.40;4.97;;;10.20;99.90;;;;;;5023807;28;20052;-88
2021/01/14 03:18:17;;;;;;;21.52;5.65;;;10.20;99.90;;;;;;5021572;28;20051;-88
2021/01/14 03:20:44;;;;;;;20.63;6.35;;;10.20;99.90;;;;;;5023822;28;20046;-88
2021/01/14 03:23:11;;;;;;;19.63;5.47;;;10.20;99.90;;;;;;5034799;28;20371;-88
2021/01/14 03:25:37;;;;;;;18.63;6.05;;;10.20;99.90;;;;;;5033628;28;20049;-88
2021/01/14 03:28:04;;;;;;;19.85;5.63;;;10.30;99.90;;;;;;5035649;28;20045;-88
2021/01/14 03:30:30;;;;;;;16.00;4.60;;;10.30;99.90;;;;;;5034733;28;20037;-88
2021/01/14 03:32:57;;;;;;;18.02;4.53;;;10.20;99.90;;;;;;5034335;28;20073;-88
2021/01/14 03:35:24;;;;;;;18.83;3.60;;;10.20;99.90;;;;;;5060762;28;20470;-88
2021/01/14 03:37:51;;;;;;;12.85;3.10;;;10.30;99.90;;;;;;5067495;28;20502;-88
2021/01/14 03:40:18;;;;;;;19.67;3.47;;;10.30;99.90;;;;;;5035050;28;20109;-89
2021/01/14 03:42:44;;;;;;;14.30;2.80;;;10.30;99.90;;;;;;5030690;28;20064;-88
2021/01/14 03:45:11;;;;;;;15.27;2.88;;;10.30;99.90;;;;;;5031356;28;20044;-88
2021/01/14 03:47:38;;;;;;;8.95;1.90;;;10.30;99.90;;;;;;5032309;28;20047;-89
2021/01/14 03:50:06;;;;;;;7.15;1.70;;;10.30;99.90;;;;;;5019692;28;20049;-89
2021/01/14 03:52:33;;;;;;;8.32;1.80;;;10.30;99.90;;;;;;5017969;28;20049;-89
2021/01/14 03:55:02;;;;;;;8.45;1.30;;;10.30;99.90;;;;;;5021445;28;20056;-89
2021/01/14 03:57:32;;;;;;;3.15;0.90;;;10.30;99.90;;;;;;5025331;28;20053;-89
2021/01/14 04:00:02;;;;;;;2.83;0.90;;;10.30;99.90;;;;;;5032647;28;20488;-89
2021/01/14 04:02:32;;;;;;;5.40;0.95;;;10.30;99.90;;;;;;5026941;28;20084;-89
2021/01/14 04:04:59;;;;;;;4.40;0.90;;;10.30;99.90;;;;;;5022205;28;20037;-89
2021/01/14 04:07:26;;;;;;;5.13;1.10;;;10.30;99.90;;;;;;5024055;28;20469;-89
2021/01/14 04:09:52;;;;;;;5.35;1.00;;;10.30;99.90;;;;;;5023143;28;20043;-89
2021/01/14 04:12:27;;;;;;;5.97;1.50;;;10.30;99.90;;;;;;5027874;28;20159;-89
2021/01/14 04:14:54;;;;;;;5.03;1.30;;;10.40;99.90;;;;;;5026850;28;20386;-89
2021/01/14 04:17:21;;;;;;;5.07;1.20;;;10.40;99.90;;;;;;5034115;28;20490;-89
2021/01/14 04:19:47;;;;;;;6.03;1.50;;;10.40;99.90;;;;;;5033362;28;20045;-89
2021/01/14 04:22:14;;;;;;;4.90;1.42;;;10.40;99.90;;;;;;5034422;28;20052;-89
2021/01/14 04:24:41;;;;;;;5.97;1.40;;;10.40;99.90;;;;;;5033638;28;20041;-89
2021/01/14 04:27:08;;;;;;;4.65;0.70;;;10.40;99.90;;;;;;5034117;28;20053;-89
2021/01/14 04:29:34;;;;;;;4.38;1.08;;;10.40;99.90;;;;;;5033238;28;20045;-90
2021/01/14 04:32:01;;;;;;;4.93;0.73;;;10.40;99.90;;;;;;5049191;28;20048;-89
2021/01/14 04:34:28;;;;;;;2.75;0.47;;;10.40;99.90;;;;;;5037585;28;20110;-89
2021/01/14 04:36:59;;;;;;;3.63;0.50;;;10.50;99.90;;;;;;5038218;28;20418;-89
2021/01/14 04:39:26;;;;;;;1.77;0.38;;;10.50;99.90;;;;;;5030050;28;20065;-89
2021/01/14 04:42:02;;;;;;;3.40;0.70;;;10.50;99.90;;;;;;5026760;28;20049;-89
2021/01/14 04:44:28;;;;;;;2.55;0.80;;;10.50;99.90;;;;;;5027532;28;20048;-88
2021/01/14 04:47:11;;;;;;;3.90;0.90;;;10.50;99.90;;;;;;5023396;28;20063;-89
2021/01/14 04:49:38;;;;;;;4.25;0.60;;;10.50;99.90;;;;;;5023485;28;21307;-90
2021/01/14 04:52:08;;;;;;;7.15;0.82;;;10.50;99.90;;;;;;5022055;28;20049;-89
2021/01/14 04:54:35;;;;;;;4.90;0.93;;;10.50;99.90;;;;;;5038102;28;20124;-89
2021/01/14 04:57:17;;;;;;;4.82;1.00;;;10.50;99.90;;;;;;5031905;28;20045;-89
2021/01/14 04:59:51;;;;;;;4.82;0.90;;;10.60;99.90;;;;;;5026779;28;20042;-89
2021/01/14 05:02:24;;;;;;;3.85;0.88;;;10.60;99.90;;;;;;5030901;28;20479;-89
2021/01/14 05:04:52;;;;;;;4.60;0.80;;;10.60;99.90;;;;;;5035253;28;20038;-90
2021/01/14 05:07:33;;;;;;;5.32;0.80;;;10.60;99.90;;;;;;5038188;28;20152;-90
2021/01/14 05:10:05;;;;;;;6.22;1.10;;;10.60;99.90;;;;;;5036594;28;20049;-90
2021/01/14 05:12:33;;;;;;;5.47;0.88;;;10.60;99.90;;;;;;5036939;28;20057;-91
2021/01/14 05:15:01;;;;;;;3.67;0.88;;;10.60;99.90;;;;;;5037263;28;20045;-90
2021/01/14 05:17:28;;;;;;;4.03;0.75;;;10.60;99.90;;;;;;5036521;28;20053;-88
2021/01/14 05:19:55;;;;;;;3.45;0.73;;;10.60;99.90;;;;;;5035687;28;20116;-90
2021/01/14 05:22:26;;;;;;;2.97;0.60;;;10.70;99.90;;;;;;5038436;28;20057;-90
2021/01/14 05:25:09;;;;;;;2.55;0.70;;;10.70;99.90;;;;;;5039071;28;20053;-91
2021/01/14 05:27:37;;;;;;;2.42;0.70;;;10.70;99.90;;;;;;5027979;28;20357;-91
2021/01/14 05:30:09;;;;;;;6.00;1.13;;;10.70;99.90;;;;;;5022523;28;20107;-91
2021/01/14 05:32:44;;;;;;;5.80;1.08;;;10.70;99.90;;;;;;5025334;28;20493;-90
2021/01/14 05:35:26;;;;;;;3.63;1.40;;;10.70;99.90;;;;;;5028427;28;20060;-91
2021/01/14 05:38:00;;;;;;;;;;;10.70;99.90;;;;;;5056499;28;20052;-91
2021/01/14 05:40:30;;;;;;;6.03;1.10;;;10.70;99.90;;;;;;5044550;28;20376;-91
2021/01/14 05:43:05;;;;;;;4.05;1.05;;;10.80;99.90;;;;;;5040054;28;20504;-91
2021/01/14 05:45:33;;;;;;;3.92;0.90;;;10.70;99.90;;;;;;5066449;28;20053;-91
2021/01/14 05:48:11;;;;;;;3.10;0.70;;;10.80;99.90;;;;;;5037315;28;20045;-90
2021/01/14 05:50:46;;;;;;;4.15;0.90;;;10.80;99.90;;;;;;5037005;28;20467;-88
2021/01/14 05:53:17;;;;;;;3.72;0.73;;;10.80;99.90;;;;;;5046033;28;20065;-89
2021/01/14 05:55:50;;;;;;;5.15;0.50;;;10.80;99.90;;;;;;5039119;28;20055;-89
2021/01/14 05:58:20;;;;;;;2.80;0.60;;;10.80;99.90;;;;;;5044572;28;20059;-91
2021/01/14 06:00:48;;;;;;;3.78;0.80;;;10.90;99.90;;;;;;5039697;28;20227;-91
2021/01/14 06:03:29;;;;;;;3.70;0.68;;;10.90;99.90;;;;;;5034465;28;20055;-91
2021/01/14 06:05:57;;;;;;;4.63;0.70;;;10.90;99.90;;;;;;5037132;28;20133;-91
2021/01/14 06:08:26;;;;;;;5.60;0.80;;;10.90;99.90;;;;;;5031768;28;20092;-91
2021/01/14 06:10:53;;;;;;;4.32;0.90;;;10.90;99.90;;;;;;5035691;28;20047;-91
2021/01/14 06:13:38;;;;;;;3.10;0.98;;;10.90;99.90;;;;;;5036350;28;20471;-88
2021/01/14 06:16:06;;;;;;;5.55;0.82;;;10.90;99.90;;;;;;5036534;28;20486;-89
2021/01/14 06:18:34;;;;;;;4.68;0.73;;;10.90;99.90;;;;;;5037359;28;20049;-92
2021/01/14 06:21:02;;;;;;;6.15;0.80;;;11.00;99.90;;;;;;5029850;28;20239;-92
2021/01/14 06:23:46;;;;;;;2.22;0.80;;;11.00;99.90;;;;;;5027249;28;20053;-92
2021/01/14 06:26:26;;;;;;;4.30;0.73;;;11.00;99.90;;;;;;5037484;28;20048;-92
2021/01/14 06:28:53;;;;;;;6.68;0.80;;;11.00;99.90;;;;;;5022848;28;20479;-90
2021/01/14 06:31:27;;;;;;;3.72;0.75;;;11.00;99.90;;;;;;5026121;28;20059;-89
2021/01/14 06:33:59;;;;;;;2.90;0.68;;;11.00;99.90;;;;;;5033426;28;20047;-91
2021/01/14 06:36:42;;;;;;;3.83;0.75;;;11.00;99.90;;;;;;5037660;28;20055;-91
2021/01/14 06:39:16;;;;;;;3.42;0.70;;;11.00;99.90;;;;;;5053504;28;20099;-92
2021/01/14 06:41:46;;;;;;;3.72;1.00;;;11.00;99.90;;;;;;5029808;28;20087;-93
2021/01/14 06:44:44;;;;;;;;;;;;;;;;;;;;;
2021/01/14 06:47:39;;;;;;;7.40;1.00;;;11.10;99.90;;;;;;5055300;28;20051;-93
2021/01/14 06:50:24;;;;;;;4.95;1.00;;;11.10;99.90;;;;;;5055162;28;20072;-93
2021/01/14 06:52:52;;;;;;;7.07;0.98;;;11.10;99.90;;;;;;5034956;28;20080;-93
2021/01/14 06:55:28;;;;;;;2.03;0.82;;;11.10;99.90;;;;;;5039142;28;20471;-93
2021/01/14 06:58:11;;;;;;;3.85;0.90;;;11.10;99.90;;;;;;5079855;28;20049;-93
2021/01/14 07:00:45;;;;;;;3.88;0.80;;;11.10;99.90;;;;;;5081853;28;20451;-92
2021/01/14 07:03:24;;;;;;;3.85;1.05;;;11.10;99.90;;;;;;5035622;28;20479;-92
2021/01/14 07:06:06;;;;;;;5.68;0.60;;;11.10;99.90;;;;;;5037645;28;20045;-92
2021/01/14 07:08:50;;;;;;;3.72;0.70;;;11.10;99.90;;;;;;5035029;28;20533;-92
2021/01/14 07:11:30;;;;;;;;;;;;;;;;;;;;;
2021/01/14 07:14:13;;;;;;;3.90;0.73;;;11.10;99.90;;;;;;5039302;28;20144;-93
2021/01/14 07:16:50;;;;;;;4.72;1.00;;;11.10;99.90;;;;;;5020441;28;20053;-93
2021/01/14 07:19:26;;;;;;;4.97;0.98;;;11.10;99.90;;;;;;5036389;28;20053;-94
2021/01/14 07:21:53;;;;;;;5.55;1.20;;;11.00;99.90;;;;;;5037297;28;20122;-90
2021/01/14 07:24:32;;;;;;;8.80;1.70;;;11.10;99.90;;;;;;5036648;28;20056;-94
2021/01/14 07:27:18;;;;;;;;;;;;;;;;;;;;;
2021/01/14 07:29:57;;;;;;;14.88;2.85;;;11.00;99.90;;;;;;5057463;28;20048;-94
2021/01/14 07:32:54;;;;;;;13.98;2.40;;;11.10;99.90;;;;;;4988913;28;20051;-93
2021/01/14 07:35:52;;;;;;;;;;;;;;;;;;;;;
2021/01/14 07:38:56;;;;;;;15.93;2.30;;;11.10;99.90;;;;;;4943968;28;20051;-93
2021/01/14 07:41:55;;;;;;;15.60;2.55;;;11.00;99.90;;;;;;4945579;28;20048;-93
2021/01/14 07:44:43;;;;;;;12.60;2.50;;;11.00;99.90;;;;;;4937545;28;20134;-93
2021/01/14 07:48:03;;;;;;;;;;;;;;;;;;;;;
2021/01/14 07:50:57;;;;;;;;;;;;;;;;;;;;;
2021/01/14 07:53:39;;;;;;;7.07;1.50;;;11.00;99.90;;;;;;4893676;29;20440;-94
2021/01/14 07:56:32;;;;;;;6.10;1.70;;;11.00;99.90;;;;;;4899367;28;20508;-94
2021/01/14 07:59:33;;;;;;;4.80;1.27;;;11.00;99.90;;;;;;4961161;28;20070;-94
2021/01/14 08:02:22;;;;;;;;;;;;;;;;;;;;;
2021/01/14 08:05:56;;;;;;;2.63;0.60;;;11.00;99.90;;;;;;4932436;29;20047;-95
2021/01/14 08:09:10;;;;;;;2.67;0.57;;;11.10;99.90;;;;;;4865511;29;20053;-95
2021/01/14 08:12:18;;;;;;;;;;;;;;;;;;;;;
2021/01/14 08:16:07;;;;;;;;;;;;;;;;;;;;;
2021/01/14 08:19:34;;;;;;;;;;;;;;;;;;;;;
2021/01/14 08:22:26;;;;;;;3.17;0.80;;;11.00;99.90;;;;;;4821952;29;20058;-94
2021/01/14 08:25:36;;;;;;;1.80;0.47;;;11.00;99.90;;;;;;4833012;29;20321;-94
2021/01/14 08:28:12;;;;;;;2.35;0.30;;;11.00;99.90;;;;;;4844794;29;20054;-94
2021/01/14 08:30:56;;;;;;;;;;;;;;;;;;;;;
2021/01/14 08:33:49;;;;;;;;;;;;;;;;;;;;;
2021/01/14 08:36:56;;;;;;;1.88;0.32;;;11.10;99.90;;;;;;4860133;29;20484;-95
2021/01/14 08:39:42;;;;;;;1.20;0.35;;;11.10;99.90;;;;;;4915438;28;20464;-95
2021/01/14 08:42:59;;;;;;;;;;;;;;;;;;;;;
2021/01/14 08:46:46;;;;;;;;;;;;;;;;;;;;;
2021/01/14 08:50:13;;;;;;;;;;;;;;;;;;;;;
2021/01/14 08:53:32;;;;;;;;;;;;;;;;;;;;;
2021/01/14 08:56:40;;;;;;;4.15;0.57;;;11.10;99.90;;;;;;4858055;29;20057;-95
2021/01/14 09:03:26;;;;;;;;;;;;;;;;;;;;;
2021/01/14 09:06:54;;;;;;;9.82;1.40;;;11.00;99.90;;;;;;4808286;29;20074;-95
2021/01/14 09:10:06;;;;;;;9.80;1.85;;;11.00;99.90;;;;;;4795838;29;20111;-95
2021/01/14 09:16:54;;;;;;;9.18;2.15;;;11.00;99.90;;;;;;4790828;29;20739;-95
2021/01/14 09:20:09;;;;;;;8.98;2.00;;;11.00;99.90;;;;;;4770109;30;20052;-95
2021/01/14 09:23:35;;;;;;;;;;;;;;;;;;;;;
2021/01/14 09:26:50;;;;;;;14.45;3.20;;;10.90;99.90;;;;;;4759409;30;20056;-94
2021/01/14 09:29:59;;;;;;;19.65;2.78;;;10.90;99.90;;;;;;4780538;29;20112;-95
2021/01/14 09:32:47;;;;;;;16.35;2.63;;;10.80;99.90;;;;;;4790732;29;20048;-94
2021/01/14 09:36:27;;;;;;;12.70;2.33;;;10.80;99.90;;;;;;4750300;30;20407;-94
2021/01/14 09:39:46;;;;;;;;;;;;;;;;;;;;;
2021/01/14 09:43:13;;;;;;;11.98;1.60;;;10.70;99.90;;;;;;4787821;30;20061;-95
2021/01/14 09:45:58;;;;;;;;;;;;;;;;;;;;;
2021/01/14 09:48:59;;;;;;;;;;;10.60;99.90;;;;;;4786812;29;20650;-95
2021/01/14 09:51:54;;;;;;;6.72;1.10;;;10.60;99.90;;;;;;4817445;29;19924;-93
2021/01/14 09:54:43;;;;;;;;;;;;;;;;;;;;;
2021/01/14 09:58:06;;;;;;;8.73;1.75;;;10.50;99.90;;;;;;4784885;29;20051;-94
2021/01/14 10:01:32;;;;;;;;;;;;;;;;;;;;;
2021/01/14 10:04:14;;;;;;;12.75;1.73;;;10.50;99.90;;;;;;4792449;29;20047;-94
2021/01/14 10:07:20;;;;;;;6.65;1.05;;;10.50;99.90;;;;;;4788669;29;20058;-94
2021/01/14 10:10:14;;;;;;;3.38;0.35;;;10.50;99.90;;;;;;4806517;29;20063;-93
2021/01/14 10:13:03;;;;;;;4.15;0.50;;;10.50;99.90;;;;;;4804432;29;20054;-94
2021/01/14 10:15:42;;;;;;;2.25;0.50;;;10.50;99.90;;;;;;4827369;29;20057;-94
2021/01/14 10:18:39;;;;;;;3.65;0.50;;;10.40;99.90;;;;;;4873411;29;20041;-94
2021/01/14 10:21:28;;;;;;;10.35;1.00;;;10.40;99.90;;;;;;4886357;29;20384;-93
2021/01/14 10:24:06;;;;;;;6.57;0.70;;;10.40;99.90;;;;;;4904172;29;20048;-93
2021/01/14 10:26:54;;;;;;;;;;;;;;;;;;;;;
2021/01/14 10:29:43;;;;;;;;;;;10.30;99.90;;;;;;4925412;29;20142;-94
2021/01/14 10:32:25;;;;;;;12.68;1.40;;;10.30;99.90;;;;;;4978173;28;19930;-94
2021/01/14 10:35:01;;;;;;;7.25;1.20;;;10.30;99.90;;;;;;4964386;28;20475;-93
2021/01/14 10:37:54;;;;;;;;;;;;;;;;;;;;;
2021/01/14 10:44:00;;;;;;;;;;;;;;;;;;;;;
2021/01/14 10:47:16;;;;;;;16.42;2.08;;;10.20;99.90;;;;;;5016946;28;20056;-95
2021/01/14 10:50:27;;;;;;;8.00;1.42;;;10.30;99.90;;;;;;5060370;28;20442;-95
2021/01/14 10:53:53;;;;;;;;;;;;;;;;;;;;;
2021/01/14 10:57:07;;;;;;;;;;;;;;;;;;;;;
2021/01/14 11:00:14;;;;;;;6.32;0.90;;;10.40;99.90;;;;;;4831849;29;20046;-94
2021/01/14 11:03:12;;;;;;;5.53;0.93;;;10.40;99.90;;;;;;4856451;29;20405;-94
2021/01/14 11:06:03;;;;;;;3.50;0.98;;;10.30;99.90;;;;;;4771511;29;20107;-95
2021/01/14 11:09:02;;;;;;;5.60;1.00;;;10.30;99.90;;;;;;4766697;30;20510;-91
2021/01/14 11:11:29;;;;;;;7.50;0.80;;;10.30;99.90;;;;;;4769534;29;20083;-91
2021/01/14 11:14:26;;;;;;;4.80;1.33;;;10.30;99.90;;;;;;4770677;30;20100;-91
2021/01/14 11:17:28;;;;;;;6.82;0.95;;;10.30;99.90;;;;;;4777141;29;20093;-92
2021/01/14 11:20:07;;;;;;;7.45;0.85;;;10.30;99.90;;;;;;4812968;29;20058;-93
2021/01/14 11:23:04;;;;;;;9.90;1.45;;;10.30;99.90;;;;;;4906107;29;20141;-94
2021/01/14 11:26:05;;;;;;;;;;;;;;;;;;;;;
2021/01/14 11:50:13;;;;;;;10.68;1.65;;;10.40;99.90;;;;;;6093908;22;4323725;-94
2021/01/14 11:52:51;;;;;;;10.48;1.40;;;10.20;99.90;;;;;;6251639;23;20020;-95
2021/01/14 11:55:42;;;;;;;8.52;1.38;;;10.30;99.90;;;;;;6161038;23;20072;-94
2021/01/14 11:58:09;;;;;;;11.10;1.42;;;10.20;99.90;;;;;;6135884;23;20040;-94
2021/01/14 12:00:53;;;;;;;9.45;1.67;;;10.30;99.90;;;;;;6137146;23;20021;-93
2021/01/14 12:03:25;;;;;;;7.80;1.65;;;10.30;99.90;;;;;;6145050;23;20023;-94
2021/01/14 12:06:08;;;;;;;10.57;1.60;;;10.30;99.90;;;;;;6147497;23;20080;-94
2021/01/14 12:08:36;;;;;;;12.10;1.90;;;10.30;99.90;;;;;;6136589;23;20341;-94
2021/01/14 12:11:26;;;;;;;;;;;;;;;;;;;;;
2021/01/14 12:14:01;;;;;;;7.82;1.70;;;10.30;99.90;;;;;;6226858;23;20339;-94
2021/01/14 12:16:43;;;;;;;11.57;1.77;;;10.30;99.90;;;;;;6251533;23;20020;-94
2021/01/14 12:19:14;;;;;;;9.35;1.42;;;10.30;99.90;;;;;;6252330;23;20030;-94
2021/01/14 12:21:45;;;;;;;6.32;1.27;;;10.30;99.90;;;;;;6254157;23;20016;-94
2021/01/14 12:24:58;;;;;;;8.55;1.13;;;10.30;99.90;;;;;;6253382;23;20050;-94
2021/01/14 12:27:29;;;;;;;9.50;1.13;;;10.40;99.90;;;;;;6254457;22;20474;-94
2021/01/14 12:30:28;;;;;;;8.13;1.05;;;10.40;99.90;;;;;;6191561;23;20449;-95
2021/01/14 12:33:01;;;;;;;6.75;1.15;;;10.40;99.90;;;;;;6191472;23;20044;-93
2021/01/14 12:35:59;;;;;;;6.25;1.00;;;10.40;99.90;;;;;;6132571;23;20026;-94
2021/01/14 12:38:54;;;;;;;11.25;1.63;;;10.40;99.90;;;;;;6045108;23;20031;-94
2021/01/14 12:41:50;;;;;;;;;;;;;;;;;;;;;
2021/01/14 12:44:47;;;;;;;10.65;1.17;;;10.40;99.90;;;;;;6045186;23;20027;-93
2021/01/14 12:47:43;;;;;;;9.88;1.20;;;10.30;99.90;;;;;;6054290;23;20030;-95
2021/01/14 12:50:32;;;;;;;5.68;1.15;;;10.30;99.90;;;;;;6095330;23;20019;-94
2021/01/14 12:53:29;;;;;;;7.32;1.10;;;10.40;99.90;;;;;;6127876;23;20044;-94
2021/01/14 12:56:38;;;;;;;11.00;1.48;;;10.40;99.90;;;;;;6187994;23;20020;-94
2021/01/14 12:59:14;;;;;;;7.85;1.15;;;10.40;99.90;;;;;;6247261;23;20082;-94
2021/01/14 13:02:13;;;;;;;9.05;1.20;;;10.50;99.90;;;;;;6183479;23;20021;-94
2021/01/14 13:04:57;;;;;;;9.10;1.25;;;10.50;99.90;;;;;;6184788;23;20103;-94
2021/01/14 13:07:34;;;;;;;7.38;1.70;;;10.60;99.90;;;;;;6185024;23;20024;-94
2021/01/14 13:10:07;;;;;;;10.02;1.50;;;10.60;99.90;;;;;;6185273;23;20013;-94
2021/01/14 13:12:38;;;;;;;11.50;1.40;;;10.70;99.90;;;;;;6184876;23;20020;-95
2021/01/14 13:15:05;;;;;;;12.02;1.77;;;10.70;99.90;;;;;;6185883;23;20353;-93
2021/01/14 13:18:08;;;;;;;;;;;;;;;;;;;;;
2021/01/14 13:20:41;;;;;;;9.38;1.65;;;10.80;99.90;;;;;;6246835;23;20467;-94
2021/01/14 13:23:11;;;;;;;13.30;2.00;;;10.80;99.90;;;;;;6246497;23;20012;-94
2021/01/14 13:25:45;;;;;;;13.00;1.88;;;10.80;99.90;;;;;;6246471;23;20020;-93
2021/01/14 13:28:22;;;;;;;10.60;1.30;;;10.90;99.90;;;;;;6246706;23;20016;-93
2021/01/14 13:31:01;;;;;;;7.07;1.45;;;10.80;99.90;;;;;;6246144;23;20458;-94
2021/01/14 13:33:56;;;;;;;8.02;1.40;;;10.80;99.90;;;;;;6185361;23;20060;-94
2021/01/14 13:36:23;;;;;;;12.50;1.60;;;10.80;99.90;;;;;;6184542;23;20312;-94
2021/01/14 13:39:08;;;;;;;13.57;1.65;;;10.80;99.90;;;;;;6184788;23;20021;-95
2021/01/14 13:42:18;;;;;;;;;;;;;;;;;;;;;
2021/01/14 13:45:09;;;;;;;16.05;2.13;;;10.80;99.90;;;;;;6038503;23;20034;-94
2021/01/14 13:47:53;;;;;;;11.43;1.75;;;10.80;99.90;;;;;;6040016;23;20023;-94
2021/01/14 13:50:54;;;;;;;6.95;1.40;;;10.70;99.90;;;;;;5929388;24;20033;-94
2021/01/14 13:53:36;;;;;;;10.63;1.83;;;10.70;99.90;;;;;;5954267;24;20048;-94
2021/01/14 13:56:36;;;;;;;12.20;1.40;;;10.60;99.90;;;;;;5924055;24;20180;-94
2021/01/14 13:59:09;;;;;;;9.43;1.50;;;10.60;99.90;;;;;;5945754;23;20029;-94
2021/01/14 14:01:40;;;;;;;9.90;1.50;;;10.60;99.90;;;;;;6019957;23;20089;-94
2021/01/14 14:04:08;;;;;;;8.05;1.40;;;10.60;99.90;;;;;;6100346;23;20044;-93
2021/01/14 14:06:47;;;;;;;18.90;2.08;;;10.60;99.90;;;;;;6100183;23;20044;-94
2021/01/14 14:09:18;;;;;;;8.13;2.13;;;10.60;99.90;;;;;;6217728;23;20027;-93
2021/01/14 14:11:46;;;;;;;13.50;1.70;;;10.70;99.90;;;;;;6245715;23;20585;-94
2021/01/14 14:14:29;;;;;;;9.75;1.83;;;10.60;99.90;;;;;;6245643;23;20026;-93
2021/01/14 14:17:04;;;;;;;22.85;2.88;;;10.60;99.90;;;;;;6245139;23;20234;-94
2021/01/14 14:19:41;;;;;;;16.15;2.20;;;10.60;99.90;;;;;;6245372;23;20082;-93
2021/01/14 14:22:36;;;;;;;11.82;2.13;;;10.60;99.90;;;;;;6184716;23;20032;-92
2021/01/14 14:25:08;;;;;;;14.07;1.80;;;10.60;99.90;;;;;;6184167;23;20070;-93
2021/01/14 14:27:46;;;;;;;;;;;10.60;99.90;;;;;;6184174;23;20017;-94
2021/01/14 14:30:16;;;;;;;16.30;2.50;;;10.50;99.90;;;;;;6186401;23;19920;-93
2021/01/14 14:32:45;;;;;;;15.23;1.88;;;10.50;99.90;;;;;;6200674;23;20044;-92
2021/01/14 14:35:23;;;;;;;13.63;2.45;;;10.50;99.90;;;;;;6187371;23;20024;-93
2021/01/14 14:37:53;;;;;;;14.07;1.85;;;10.50;99.90;;;;;;6184492;23;20120;-94
2021/01/14 14:40:26;;;;;;;12.75;2.00;;;10.50;99.90;;;;;;6219826;23;20020;-93
2021/01/14 14:43:07;;;;;;;13.18;1.95;;;10.60;99.90;;;;;;6132671;23;20018;-93
2021/01/14 14:45:41;;;;;;;12.07;1.92;;;10.50;99.90;;;;;;6153825;23;20329;-93
2021/01/14 14:48:19;;;;;;;10.63;2.05;;;10.50;99.90;;;;;;6154165;23;20018;-93
2021/01/14 14:50:49;;;;;;;10.30;1.80;;;10.60;99.90;;;;;;6153997;23;20044;-94
2021/01/14 14:53:15;;;;;;;11.93;1.83;;;10.50;99.90;;;;;;6153790;23;20025;-93
2021/01/14 14:55:46;;;;;;;8.98;1.55;;;10.50;99.90;;;;;;6154303;23;20075;-92
2021/01/14 14:58:17;;;;;;;11.35;1.77;;;10.50;99.90;;;;;;6154028;23;20096;-93
2021/01/14 15:00:46;;;;;;;13.00;2.05;;;10.60;99.90;;;;;;6152802;23;20096;-92
2021/01/14 15:03:12;;;;;;;9.57;2.00;;;10.60;99.90;;;;;;6152635;23;20017;-93